Time;durP1;ratioP1;P1;durP2;ratioP2;P2;SDS_P1;SDS_P2;PMS_P1;PMS_P2;Temp;Humidity;BMP_temperature;BMP_pressure;BME280_temperature;BME280_humidity;BME280_pressure;Samples;Min_cycle;Max_cycle;Signal;HPM_P1;HPM_P2
2020/12/31 00:00:27;;;;;;;6.53;0.65;;;22.90;99.90;;;;;;5073251;28;20029;-76
2020/12/31 00:02:54;;;;;;;5.03;0.60;;;22.80;99.90;;;;;;5071672;28;20128;-76
2020/12/31 00:05:21;;;;;;;4.15;0.88;;;22.80;99.90;;;;;;5072274;28;20040;-76
2020/12/31 00:07:48;;;;;;;8.73;0.90;;;22.90;99.90;;;;;;5070002;28;20025;-76
2020/12/31 00:10:16;;;;;;;3.38;0.40;;;22.80;99.90;;;;;;5054666;28;20040;-75
2020/12/31 00:12:43;;;;;;;5.57;0.77;;;22.80;99.90;;;;;;5052794;28;20104;-76
2020/12/31 00:15:11;;;;;;;6.55;1.00;;;22.80;99.90;;;;;;5036848;28;20049;-76
2020/12/31 00:17:38;;;;;;;3.60;0.60;;;22.70;99.90;;;;;;5060644;22;20080;-76
2020/12/31 00:20:06;;;;;;;6.85;0.75;;;22.60;99.90;;;;;;5048873;28;20029;-76
2020/12/31 00:22:34;;;;;;;7.80;0.90;;;22.70;99.90;;;;;;5032418;28;20061;-75
2020/12/31 00:25:01;;;;;;;8.07;1.20;;;22.80;99.90;;;;;;5034376;28;20021;-76
2020/12/31 00:27:28;;;;;;;4.68;0.80;;;22.90;99.90;;;;;;5031693;28;20026;-76
2020/12/31 00:29:56;;;;;;;7.13;0.98;;;23.00;99.90;;;;;;5031700;28;20026;-75
2020/12/31 00:32:23;;;;;;;8.02;0.95;;;23.00;99.90;;;;;;5032523;28;20030;-76
2020/12/31 00:34:50;;;;;;;4.03;1.13;;;23.00;99.90;;;;;;5034251;28;20045;-75
2020/12/31 00:37:18;;;;;;;8.60;0.93;;;23.10;99.90;;;;;;5014284;28;20486;-75
2020/12/31 00:39:45;;;;;;;5.20;0.93;;;23.10;99.90;;;;;;5033875;28;20026;-76
2020/12/31 00:42:13;;;;;;;4.93;0.85;;;23.10;99.90;;;;;;5034501;28;20029;-76
2020/12/31 00:44:40;;;;;;;5.25;0.70;;;23.30;99.90;;;;;;5033732;28;20025;-76
2020/12/31 00:47:08;;;;;;;5.93;1.58;;;23.20;99.90;;;;;;5014332;28;20056;-76
2020/12/31 00:49:35;;;;;;;5.63;0.65;;;23.20;99.90;;;;;;5045491;22;20125;-75
2020/12/31 00:52:02;;;;;;;5.68;1.05;;;23.20;99.90;;;;;;5072391;28;20025;-75
2020/12/31 00:54:29;;;;;;;6.82;1.15;;;22.90;99.90;;;;;;5073670;28;20017;-75
2020/12/31 00:56:56;;;;;;;4.45;0.55;;;22.80;99.90;;;;;;5070894;28;20017;-76
2020/12/31 00:59:24;;;;;;;5.80;1.08;;;22.70;99.90;;;;;;5057972;28;20523;-75
2020/12/31 01:01:51;;;;;;;4.28;0.80;;;22.60;99.90;;;;;;5051928;28;20115;-76
2020/12/31 01:04:18;;;;;;;6.30;0.80;;;22.50;99.90;;;;;;5035304;28;20108;-75
2020/12/31 01:06:45;;;;;;;5.93;0.88;;;22.50;99.90;;;;;;5051782;28;20041;-75
2020/12/31 01:09:13;;;;;;;10.10;2.58;;;22.30;99.90;;;;;;5053115;28;20029;-76
2020/12/31 01:11:41;;;;;;;4.35;0.77;;;22.20;99.90;;;;;;5051043;28;20041;-75
2020/12/31 01:14:08;;;;;;;8.80;2.13;;;22.10;99.90;;;;;;5048926;28;20104;-76
2020/12/31 01:16:36;;;;;;;10.15;2.45;;;22.20;99.90;;;;;;5050379;28;20029;-75
2020/12/31 01:19:03;;;;;;;7.20;1.35;;;22.10;99.90;;;;;;5053224;28;20151;-75
2020/12/31 01:21:31;;;;;;;7.15;1.10;;;22.10;99.90;;;;;;5050485;28;20394;-75
2020/12/31 01:23:58;;;;;;;10.50;1.10;;;22.10;99.90;;;;;;5049540;28;20424;-75
2020/12/31 01:26:33;;;;;;;7.35;1.02;;;22.20;99.90;;;;;;5051282;28;20486;-76
2020/12/31 01:29:02;;;;;;;5.88;1.10;;;22.20;99.90;;;;;;5053064;28;20025;-76
2020/12/31 01:31:29;;;;;;;4.50;0.70;;;22.20;99.90;;;;;;5050855;28;20442;-75
2020/12/31 01:33:56;;;;;;;8.23;0.98;;;22.20;99.90;;;;;;5052844;28;20021;-75
2020/12/31 01:36:24;;;;;;;2.92;0.60;;;22.20;99.90;;;;;;5050543;28;20555;-75
2020/12/31 01:38:52;;;;;;;11.38;0.77;;;22.20;99.90;;;;;;5050278;28;20102;-75
2020/12/31 01:41:24;;;;;;;10.00;1.27;;;22.30;99.90;;;;;;5051192;28;20051;-75
2020/12/31 01:44:12;;;;;;;6.20;0.70;;;22.40;99.90;;;;;;5052602;28;20021;-75
2020/12/31 01:46:45;;;;;;;4.90;0.70;;;22.50;99.90;;;;;;5048212;28;20032;-75
2020/12/31 01:49:14;;;;;;;5.60;1.38;;;22.40;99.90;;;;;;5052307;28;20021;-75
2020/12/31 01:51:45;;;;;;;6.63;1.27;;;22.30;99.90;;;;;;5077844;22;20048;-76
2020/12/31 01:54:15;;;;;;;7.78;0.80;;;22.20;99.90;;;;;;5072775;28;20024;-75
2020/12/31 01:56:43;;;;;;;6.63;0.70;;;22.20;99.90;;;;;;5040888;23;20053;-75
2020/12/31 01:59:13;;;;;;;9.13;1.55;;;22.10;99.90;;;;;;5052829;28;20470;-75
2020/12/31 02:01:40;;;;;;;8.23;0.70;;;22.00;99.90;;;;;;5061690;22;20056;-75
2020/12/31 02:04:08;;;;;;;6.65;0.93;;;21.90;99.90;;;;;;5070644;28;20023;-75
2020/12/31 02:06:37;;;;;;;5.43;0.80;;;21.70;99.90;;;;;;5070557;28;20434;-75
2020/12/31 02:09:05;;;;;;;10.52;1.00;;;21.60;99.90;;;;;;5085917;22;20505;-76
2020/12/31 02:11:32;;;;;;;8.20;0.75;;;21.40;99.90;;;;;;5052782;28;20037;-77
2020/12/31 02:13:59;;;;;;;6.10;0.93;;;21.20;99.90;;;;;;5072487;28;20031;-77
2020/12/31 02:16:38;;;;;;;5.28;0.95;;;21.10;99.90;;;;;;5066158;28;20107;-77
2020/12/31 02:19:06;;;;;;;8.60;0.55;;;21.10;99.90;;;;;;5072017;28;20025;-76
2020/12/31 02:21:38;;;;;;;7.93;1.42;;;21.00;99.90;;;;;;5069002;28;20206;-76
2020/12/31 02:24:07;;;;;;;8.90;1.17;;;20.90;99.90;;;;;;5069878;28;20025;-76
2020/12/31 02:26:37;;;;;;;9.75;1.00;;;20.90;99.90;;;;;;5058307;23;20054;-76
2020/12/31 02:29:07;;;;;;;3.53;0.65;;;20.90;99.90;;;;;;5051963;28;20031;-76
2020/12/31 02:31:35;;;;;;;8.68;0.95;;;20.80;99.90;;;;;;5047477;28;20033;-76
2020/12/31 02:34:03;;;;;;;10.40;1.52;;;20.80;99.90;;;;;;5052048;28;20102;-76
2020/12/31 02:36:32;;;;;;;6.15;0.98;;;20.80;99.90;;;;;;5048803;28;20036;-77
2020/12/31 02:39:03;;;;;;;3.45;0.82;;;20.60;99.90;;;;;;5051765;28;20104;-77
2020/12/31 02:41:30;;;;;;;9.40;0.80;;;20.60;99.90;;;;;;5049906;28;20024;-77
2020/12/31 02:43:57;;;;;;;6.38;1.25;;;20.50;99.90;;;;;;5051916;28;20374;-77
2020/12/31 02:46:25;;;;;;;7.85;1.17;;;20.40;99.90;;;;;;5049969;28;20037;-77
2020/12/31 02:48:53;;;;;;;6.78;0.93;;;20.30;99.90;;;;;;5031790;28;20048;-78
2020/12/31 02:51:20;;;;;;;7.80;1.10;;;20.20;99.90;;;;;;5030060;28;20056;-78
2020/12/31 02:53:48;;;;;;;5.93;1.55;;;20.10;99.90;;;;;;5051313;28;20069;-79
2020/12/31 02:56:20;;;;;;;7.68;1.20;;;20.20;99.90;;;;;;5050659;28;20028;-79
2020/12/31 02:58:48;;;;;;;11.18;1.65;;;20.10;99.90;;;;;;5069261;22;20045;-78
2020/12/31 03:01:17;;;;;;;6.50;1.20;;;20.10;99.90;;;;;;5050047;28;20066;-78
2020/12/31 03:03:44;;;;;;;8.52;1.55;;;20.10;99.90;;;;;;5066875;28;20028;-77
2020/12/31 03:06:12;;;;;;;6.40;1.63;;;20.20;99.90;;;;;;5071578;28;20070;-77
2020/12/31 03:08:41;;;;;;;10.18;1.30;;;20.20;99.90;;;;;;5060844;28;20500;-77
2020/12/31 03:11:14;;;;;;;8.07;1.17;;;20.20;99.90;;;;;;5049374;28;20557;-77
2020/12/31 03:13:42;;;;;;;8.70;1.02;;;20.20;99.90;;;;;;5051066;28;20032;-77
2020/12/31 03:16:09;;;;;;;7.38;1.02;;;20.20;99.90;;;;;;5051634;28;20436;-78
2020/12/31 03:18:37;;;;;;;6.88;1.38;;;20.20;99.90;;;;;;5049728;28;20040;-78
2020/12/31 03:21:04;;;;;;;9.32;1.52;;;20.20;99.90;;;;;;5034045;28;20025;-78
2020/12/31 03:23:32;;;;;;;8.68;1.40;;;20.10;99.90;;;;;;5046905;28;20025;-78
2020/12/31 03:25:59;;;;;;;7.30;1.38;;;20.00;99.90;;;;;;5047070;28;20037;-78
2020/12/31 03:28:26;;;;;;;10.75;1.40;;;20.00;99.90;;;;;;5049400;28;20029;-78
2020/12/31 03:30:54;;;;;;;7.65;1.30;;;20.00;99.90;;;;;;5052050;28;20513;-78
2020/12/31 03:33:21;;;;;;;9.00;1.50;;;20.00;99.90;;;;;;5049642;28;20033;-78
2020/12/31 03:35:50;;;;;;;7.35;1.33;;;19.90;99.90;;;;;;5055047;28;20066;-78
2020/12/31 03:38:21;;;;;;;11.45;1.45;;;20.00;99.90;;;;;;5051675;28;20033;-78
2020/12/31 03:40:49;;;;;;;8.95;1.08;;;19.90;99.90;;;;;;5055780;28;20024;-79
2020/12/31 03:43:16;;;;;;;7.97;1.40;;;19.90;99.90;;;;;;5053762;28;20032;-79
2020/12/31 03:45:44;;;;;;;8.80;1.83;;;19.90;99.90;;;;;;5055337;28;20029;-78
2020/12/31 03:48:12;;;;;;;8.30;1.10;;;19.90;99.90;;;;;;5053381;28;20032;-78
2020/12/31 03:50:39;;;;;;;9.07;1.02;;;19.90;99.90;;;;;;5055536;28;20024;-78
2020/12/31 03:53:07;;;;;;;6.85;0.90;;;19.90;99.90;;;;;;5053192;28;20481;-78
2020/12/31 03:55:34;;;;;;;9.23;1.98;;;20.00;99.90;;;;;;5037586;28;20036;-78
2020/12/31 03:58:01;;;;;;;8.45;1.27;;;20.10;99.90;;;;;;5050298;28;20064;-78
2020/12/31 04:00:29;;;;;;;7.25;1.45;;;20.10;99.90;;;;;;5079606;22;20045;-78
2020/12/31 04:02:56;;;;;;;10.68;1.90;;;20.10;99.90;;;;;;5052543;23;20060;-78
2020/12/31 04:05:24;;;;;;;12.02;1.55;;;20.00;99.90;;;;;;5047276;28;20102;-78
2020/12/31 04:07:51;;;;;;;7.60;1.17;;;20.00;99.90;;;;;;5067009;22;20056;-78
2020/12/31 04:10:18;;;;;;;6.13;1.20;;;20.00;99.90;;;;;;5035743;28;20508;-78
2020/12/31 04:12:46;;;;;;;9.27;1.35;;;20.00;99.90;;;;;;5033081;28;20040;-78
2020/12/31 04:15:13;;;;;;;8.75;1.40;;;19.90;99.90;;;;;;5031868;28;20025;-78
2020/12/31 04:17:40;;;;;;;5.50;0.75;;;19.90;99.90;;;;;;5074717;23;20131;-78
2020/12/31 04:20:07;;;;;;;4.80;1.10;;;19.80;99.90;;;;;;5052067;28;20025;-78
2020/12/31 04:22:35;;;;;;;7.72;1.75;;;19.70;99.90;;;;;;5052908;28;20025;-78
2020/12/31 04:25:02;;;;;;;6.50;1.13;;;19.70;99.90;;;;;;5054850;28;20101;-78
2020/12/31 04:27:29;;;;;;;7.72;1.75;;;19.70;99.90;;;;;;5052584;28;20037;-78
2020/12/31 04:29:57;;;;;;;7.57;1.85;;;19.70;99.90;;;;;;5054929;28;20494;-78
2020/12/31 04:32:24;;;;;;;8.73;1.73;;;19.90;99.90;;;;;;5068603;22;20496;-78
2020/12/31 04:34:51;;;;;;;8.68;1.58;;;20.00;99.90;;;;;;5054894;28;20025;-79
2020/12/31 04:37:18;;;;;;;8.13;1.52;;;20.20;99.90;;;;;;5053110;28;20099;-79
2020/12/31 04:39:46;;;;;;;9.65;1.75;;;20.10;99.90;;;;;;5037030;28;20025;-79
2020/12/31 04:42:13;;;;;;;10.35;2.17;;;20.10;99.90;;;;;;5051408;28;20029;-78
2020/12/31 04:44:41;;;;;;;8.43;1.30;;;20.00;99.90;;;;;;5054734;28;20021;-78
2020/12/31 04:47:20;;;;;;;13.52;1.77;;;20.00;99.90;;;;;;5051034;28;20051;-78
2020/12/31 04:49:52;;;;;;;10.80;2.40;;;20.00;99.90;;;;;;5054549;28;20039;-79
2020/12/31 04:52:19;;;;;;;8.65;1.17;;;20.00;99.90;;;;;;5043751;28;20079;-79
2020/12/31 04:54:47;;;;;;;13.52;1.98;;;20.00;99.90;;;;;;5054387;28;20021;-79
2020/12/31 04:57:15;;;;;;;12.95;2.05;;;19.90;99.90;;;;;;5052046;28;20103;-78
2020/12/31 04:59:42;;;;;;;14.05;2.42;;;19.80;99.90;;;;;;5051704;28;20029;-78
2020/12/31 05:02:09;;;;;;;10.05;1.50;;;19.80;99.90;;;;;;5050917;28;20051;-78
2020/12/31 05:04:37;;;;;;;7.93;1.17;;;19.70;99.90;;;;;;5050282;28;20087;-78
2020/12/31 05:07:04;;;;;;;11.75;1.45;;;19.70;99.90;;;;;;5078054;23;20059;-78
2020/12/31 05:09:31;;;;;;;12.25;1.90;;;19.60;99.90;;;;;;5057194;28;20386;-78
2020/12/31 05:11:59;;;;;;;13.88;1.88;;;19.60;99.90;;;;;;5058308;28;20025;-79
2020/12/31 05:14:37;;;;;;;10.88;1.30;;;19.60;99.90;;;;;;5071938;28;20431;-78
2020/12/31 05:17:18;;;;;;;13.52;2.13;;;19.60;99.90;;;;;;5052362;28;20032;-78
2020/12/31 05:19:45;;;;;;;11.75;1.35;;;19.60;99.90;;;;;;5053993;28;20032;-81
2020/12/31 05:22:19;;;;;;;12.40;1.50;;;19.40;99.90;;;;;;5041887;28;20120;-79
2020/12/31 05:24:51;;;;;;;15.25;2.00;;;19.40;99.90;;;;;;5074018;28;20036;-79
2020/12/31 05:27:25;;;;;;;11.38;1.58;;;19.40;99.90;;;;;;5072084;28;20040;-79
2020/12/31 05:30:10;;;;;;;8.25;1.17;;;19.40;99.90;;;;;;5053319;28;20028;-79
2020/12/31 05:32:40;;;;;;;12.82;1.42;;;19.40;99.90;;;;;;5071925;28;20493;-79
2020/12/31 05:35:17;;;;;;;12.98;1.55;;;19.30;99.90;;;;;;5073626;28;20424;-79
2020/12/31 05:37:44;;;;;;;13.48;1.80;;;19.30;99.90;;;;;;5071356;28;20040;-78
2020/12/31 05:40:14;;;;;;;13.68;1.85;;;19.30;99.90;;;;;;5073140;28;20021;-78
2020/12/31 05:42:43;;;;;;;9.65;1.98;;;19.30;99.90;;;;;;5071380;28;20040;-79
2020/12/31 05:45:18;;;;;;;11.30;1.60;;;19.40;99.90;;;;;;5067205;28;20063;-79
2020/12/31 05:47:53;;;;;;;6.97;1.70;;;19.30;99.90;;;;;;5064029;28;20489;-79
2020/12/31 05:50:25;;;;;;;10.20;1.15;;;19.30;99.90;;;;;;5073468;28;20029;-78
2020/12/31 05:52:54;;;;;;;10.82;2.20;;;19.20;99.90;;;;;;5071254;28;20029;-78
2020/12/31 05:55:24;;;;;;;10.02;1.38;;;19.30;99.90;;;;;;5070527;28;20024;-78
2020/12/31 05:57:56;;;;;;;10.35;1.75;;;19.20;99.90;;;;;;5070746;28;20540;-78
2020/12/31 06:00:26;;;;;;;13.63;2.58;;;19.30;99.90;;;;;;5073234;28;20032;-78
2020/12/31 06:03:02;;;;;;;11.02;1.55;;;19.30;99.90;;;;;;5071288;28;20021;-78
2020/12/31 06:05:30;;;;;;;11.60;2.05;;;19.40;99.90;;;;;;5070565;28;20032;-78
2020/12/31 06:07:58;;;;;;;11.57;1.83;;;19.40;99.90;;;;;;5087859;22;20049;-78
2020/12/31 06:10:31;;;;;;;13.65;2.00;;;19.50;99.90;;;;;;5072849;23;20041;-78
2020/12/31 06:13:03;;;;;;;20.95;2.60;;;19.50;99.90;;;;;;5049668;28;20389;-78
2020/12/31 06:15:38;;;;;;;15.07;2.80;;;19.60;99.90;;;;;;5048174;22;20176;-78
2020/12/31 06:18:07;;;;;;;9.00;2.00;;;19.70;99.90;;;;;;5026220;28;20029;-78
2020/12/31 06:20:39;;;;;;;11.32;1.60;;;19.70;99.90;;;;;;4995270;28;20390;-78
2020/12/31 06:23:10;;;;;;;11.27;1.90;;;19.70;99.90;;;;;;5028584;22;20521;-78
2020/12/31 06:25:40;;;;;;;11.07;1.98;;;19.70;99.90;;;;;;5030669;28;20037;-78
2020/12/31 06:28:28;;;;;;;14.13;1.52;;;19.70;99.90;;;;;;5025730;28;20036;-77
2020/12/31 06:30:55;;;;;;;17.42;1.40;;;19.70;99.90;;;;;;5012692;28;20050;-77
2020/12/31 06:33:31;;;;;;;14.38;1.63;;;19.70;99.90;;;;;;5010977;28;20053;-77
2020/12/31 06:36:03;;;;;;;19.05;2.53;;;19.70;99.90;;;;;;5012544;28;20048;-77
2020/12/31 06:38:36;;;;;;;7.20;1.23;;;19.80;99.90;;;;;;5007310;28;20530;-77
2020/12/31 06:41:06;;;;;;;7.82;1.08;;;19.80;99.90;;;;;;5052453;22;20076;-77
2020/12/31 06:43:38;;;;;;;18.17;2.58;;;19.80;99.90;;;;;;5049236;28;20031;-77
2020/12/31 06:46:21;;;;;;;11.48;1.55;;;19.80;99.90;;;;;;5048104;28;20033;-77
2020/12/31 06:48:52;;;;;;;10.88;1.88;;;19.80;99.90;;;;;;5038058;28;20021;-76
2020/12/31 06:51:26;;;;;;;10.23;1.70;;;19.80;99.90;;;;;;5030670;28;20496;-76
2020/12/31 06:53:53;;;;;;;10.18;1.30;;;19.80;99.90;;;;;;5012461;28;20442;-76
2020/12/31 06:56:47;;;;;;;11.02;1.30;;;19.80;99.90;;;;;;5011561;28;20065;-76
2020/12/31 06:59:35;;;;;;;11.00;1.50;;;19.80;99.90;;;;;;5011686;28;20032;-76
2020/12/31 07:02:20;;;;;;;8.65;1.45;;;19.80;99.90;;;;;;5016382;28;20021;-77
2020/12/31 07:04:47;;;;;;;13.38;1.67;;;19.80;99.90;;;;;;5029775;28;20067;-76
2020/12/31 07:07:20;;;;;;;9.55;1.50;;;19.80;99.90;;;;;;5029456;28;20057;-77
2020/12/31 07:10:01;;;;;;;9.35;0.85;;;19.90;99.90;;;;;;5031136;28;20103;-76
2020/12/31 07:12:45;;;;;;;13.73;2.65;;;19.80;99.90;;;;;;5029234;28;20029;-77
2020/12/31 07:15:17;;;;;;;16.30;2.83;;;19.90;99.90;;;;;;5057891;22;20077;-76
2020/12/31 07:17:50;;;;;;;12.57;1.90;;;19.90;99.90;;;;;;5060116;28;20032;-77
2020/12/31 07:20:18;;;;;;;16.98;2.45;;;19.90;99.90;;;;;;5033545;28;20048;-77
2020/12/31 07:22:51;;;;;;;10.77;1.40;;;19.90;99.90;;;;;;5047682;28;20512;-77
2020/12/31 07:25:19;;;;;;;12.50;1.85;;;19.90;99.90;;;;;;5051270;28;20021;-77
2020/12/31 07:27:48;;;;;;;10.77;1.55;;;19.90;99.90;;;;;;5049106;28;20025;-77
2020/12/31 07:30:23;;;;;;;10.70;2.20;;;19.90;99.90;;;;;;5051370;28;20446;-77
2020/12/31 07:33:05;;;;;;;9.48;1.70;;;19.90;99.90;;;;;;5044683;28;20060;-76
2020/12/31 07:35:40;;;;;;;8.10;1.85;;;19.90;99.90;;;;;;5031618;28;20033;-77
2020/12/31 07:38:19;;;;;;;12.38;2.28;;;19.90;99.90;;;;;;5045154;28;20128;-77
2020/12/31 07:40:48;;;;;;;16.58;1.58;;;20.00;99.90;;;;;;5051568;28;20025;-77
2020/12/31 07:43:16;;;;;;;10.45;1.73;;;19.90;99.90;;;;;;5029191;28;20033;-77
2020/12/31 07:46:02;;;;;;;10.32;1.20;;;19.90;99.90;;;;;;5051168;28;20025;-77
2020/12/31 07:48:32;;;;;;;12.57;2.05;;;20.00;99.90;;;;;;5014777;28;20037;-77
2020/12/31 07:51:01;;;;;;;5.97;1.48;;;20.00;99.90;;;;;;5031595;28;20040;-77
2020/12/31 07:53:29;;;;;;;18.38;4.80;;;20.00;99.90;;;;;;5043694;28;20021;-76
2020/12/31 07:55:57;;;;;;;14.85;5.10;;;20.00;99.90;;;;;;5044796;28;20032;-77
2020/12/31 07:58:32;;;;;;;18.00;8.98;;;20.10;99.90;;;;;;5045155;28;20096;-76
2020/12/31 08:01:06;;;;;;;10.07;2.55;;;20.00;99.90;;;;;;5049309;28;20555;-77
2020/12/31 08:03:35;;;;;;;18.60;10.35;;;20.00;99.90;;;;;;5048781;28;20052;-77
2020/12/31 08:06:06;;;;;;;13.05;5.85;;;20.10;99.90;;;;;;5032886;28;20032;-77
2020/12/31 08:08:34;;;;;;;16.02;3.95;;;20.00;99.90;;;;;;5048792;28;20082;-77
2020/12/31 08:11:08;;;;;;;12.18;2.83;;;20.00;99.90;;;;;;5051171;28;20402;-77
2020/12/31 08:13:36;;;;;;;14.75;6.68;;;19.90;99.90;;;;;;5049130;28;20068;-77
2020/12/31 08:16:03;;;;;;;12.38;2.42;;;19.90;99.90;;;;;;5075384;22;20095;-77
2020/12/31 08:18:32;;;;;;;12.90;1.58;;;20.00;99.90;;;;;;5086797;22;20045;-77
2020/12/31 08:21:04;;;;;;;13.57;2.22;;;19.90;99.90;;;;;;5071556;28;20103;-77
2020/12/31 08:23:45;;;;;;;10.43;3.80;;;19.90;99.90;;;;;;5079877;22;20060;-77
2020/12/31 08:26:18;;;;;;;13.75;4.97;;;19.90;99.90;;;;;;5074315;28;20024;-77
2020/12/31 08:28:48;;;;;;;14.33;4.83;;;19.90;99.90;;;;;;5073788;28;20029;-77
2020/12/31 08:31:17;;;;;;;17.67;8.35;;;20.00;99.90;;;;;;5075942;22;20337;-77
2020/12/31 08:33:44;;;;;;;12.85;2.30;;;19.90;99.90;;;;;;5035365;28;20031;-77
2020/12/31 08:36:23;;;;;;;12.70;4.05;;;19.90;99.90;;;;;;5052390;28;20124;-77
2020/12/31 08:38:53;;;;;;;11.88;1.98;;;19.90;99.90;;;;;;5051910;28;20471;-77
2020/12/31 08:41:21;;;;;;;12.05;3.33;;;19.90;99.90;;;;;;5053718;28;20025;-77
2020/12/31 08:43:53;;;;;;;16.83;7.30;;;19.90;99.90;;;;;;5053898;28;20060;-77
2020/12/31 08:46:22;;;;;;;14.07;4.30;;;19.90;99.90;;;;;;5052873;28;20033;-77
2020/12/31 08:48:54;;;;;;;23.30;14.75;;;19.90;99.90;;;;;;5069691;22;20056;-77
2020/12/31 08:51:21;;;;;;;11.43;4.05;;;19.90;99.90;;;;;;5069430;28;20032;-77
2020/12/31 08:53:52;;;;;;;13.65;6.22;;;19.90;99.90;;;;;;5073483;28;20013;-77
2020/12/31 08:56:21;;;;;;;19.13;6.68;;;19.80;99.90;;;;;;5072702;28;20059;-77
2020/12/31 08:58:48;;;;;;;15.55;6.05;;;19.80;99.90;;;;;;5072365;28;20025;-77
2020/12/31 09:01:26;;;;;;;11.52;4.72;;;19.80;99.90;;;;;;5072315;28;20104;-77
2020/12/31 09:04:13;;;;;;;13.48;2.30;;;19.80;99.90;;;;;;5054846;28;20100;-77
2020/12/31 09:06:44;;;;;;;9.68;4.63;;;19.80;99.90;;;;;;5071596;28;20143;-77
2020/12/31 09:09:29;;;;;;;14.60;4.53;;;19.80;99.90;;;;;;5073554;28;20025;-76
2020/12/31 09:12:03;;;;;;;11.93;3.78;;;19.90;99.90;;;;;;5072101;28;20017;-76
2020/12/31 09:14:32;;;;;;;13.98;4.55;;;19.80;99.90;;;;;;5070647;28;20021;-76
2020/12/31 09:17:00;;;;;;;10.68;4.00;;;19.80;99.90;;;;;;5071308;28;20099;-76
2020/12/31 09:19:27;;;;;;;11.98;6.22;;;19.80;99.90;;;;;;5073357;28;20024;-76
2020/12/31 09:21:55;;;;;;;12.93;2.75;;;19.80;99.90;;;;;;5066414;22;20053;-76
2020/12/31 09:24:23;;;;;;;10.07;2.40;;;19.80;99.90;;;;;;5035222;28;20501;-76
2020/12/31 09:27:00;;;;;;;14.38;3.90;;;19.80;99.90;;;;;;5051477;28;20028;-77
2020/12/31 09:29:29;;;;;;;9.38;2.80;;;19.80;99.90;;;;;;5036969;28;20017;-76
2020/12/31 09:31:57;;;;;;;10.30;4.18;;;19.80;99.90;;;;;;5028264;28;20044;-77
2020/12/31 09:34:24;;;;;;;10.82;1.58;;;19.80;99.90;;;;;;4996029;28;20037;-77
2020/12/31 09:36:58;;;;;;;15.27;5.50;;;19.70;99.90;;;;;;5016278;28;20072;-76
2020/12/31 09:39:25;;;;;;;14.50;5.32;;;19.70;99.90;;;;;;5032968;28;20092;-76
2020/12/31 09:41:53;;;;;;;8.60;5.45;;;19.80;99.90;;;;;;5030925;28;20021;-77
2020/12/31 09:44:20;;;;;;;14.18;5.28;;;19.80;99.90;;;;;;5012642;28;20116;-76
2020/12/31 09:46:50;;;;;;;8.60;4.07;;;19.80;99.90;;;;;;5030890;28;20038;-76
2020/12/31 09:49:17;;;;;;;13.55;3.20;;;19.80;99.90;;;;;;5032992;28;20072;-77
2020/12/31 09:51:46;;;;;;;8.25;3.42;;;19.80;99.90;;;;;;5027890;28;20126;-76
2020/12/31 09:54:14;;;;;;;12.15;5.72;;;19.70;99.90;;;;;;5033050;28;20022;-76
2020/12/31 09:56:41;;;;;;;11.02;3.97;;;19.70;99.90;;;;;;5030483;28;20037;-76
2020/12/31 09:59:08;;;;;;;13.60;3.50;;;19.80;99.90;;;;;;5032712;28;20018;-77
2020/12/31 10:01:36;;;;;;;11.32;4.65;;;19.70;99.90;;;;;;5030681;28;20025;-77
2020/12/31 10:04:03;;;;;;;11.20;4.57;;;19.70;99.90;;;;;;5030386;28;20040;-76
2020/12/31 10:06:30;;;;;;;9.85;3.58;;;19.70;99.90;;;;;;5030566;28;20560;-76
2020/12/31 10:08:58;;;;;;;8.75;1.73;;;19.70;99.90;;;;;;5032779;28;20013;-76
2020/12/31 10:11:25;;;;;;;14.43;5.50;;;19.60;99.90;;;;;;5030673;28;20053;-76
2020/12/31 10:13:52;;;;;;;17.77;6.85;;;19.60;99.90;;;;;;5012681;28;20018;-76
2020/12/31 10:16:20;;;;;;;6.93;1.17;;;19.70;99.90;;;;;;5005046;28;20060;-76
2020/12/31 10:18:47;;;;;;;21.95;11.05;;;19.70;99.90;;;;;;5014253;28;20494;-76
2020/12/31 10:21:17;;;;;;;20.02;11.77;;;19.70;99.90;;;;;;5031882;28;20053;-76
2020/12/31 10:23:44;;;;;;;36.58;26.63;;;19.70;99.90;;;;;;5082827;22;20053;-76
2020/12/31 10:26:12;;;;;;;7.43;2.15;;;19.60;99.90;;;;;;5060636;22;20060;-77
2020/12/31 10:28:39;;;;;;;14.20;3.95;;;19.50;99.90;;;;;;5041565;28;20060;-76
2020/12/31 10:31:06;;;;;;;8.00;2.58;;;19.60;99.90;;;;;;5073836;23;20076;-77
2020/12/31 10:33:33;;;;;;;9.95;4.13;;;19.50;99.90;;;;;;5069678;28;20032;-76
2020/12/31 10:36:01;;;;;;;11.23;1.77;;;19.50;99.90;;;;;;5071354;28;20577;-77
2020/12/31 10:38:29;;;;;;;7.33;1.97;;;19.50;99.90;;;;;;4975025;22;2629052;-76
2020/12/31 10:40:56;;;;;;;10.40;3.30;;;19.50;99.90;;;;;;5051957;28;20429;-76
2020/12/31 10:43:23;;;;;;;6.07;1.55;;;19.60;99.90;;;;;;5051457;28;20028;-76
2020/12/31 10:45:51;;;;;;;11.85;1.58;;;19.60;99.90;;;;;;5051707;28;20362;-75
2020/12/31 10:48:18;;;;;;;6.82;1.90;;;19.60;99.90;;;;;;5049782;28;20075;-75
2020/12/31 10:50:45;;;;;;;7.00;2.20;;;19.60;99.90;;;;;;5048833;28;20549;-76
2020/12/31 10:53:12;;;;;;;10.18;2.92;;;19.50;99.90;;;;;;5046553;28;20025;-76
2020/12/31 10:55:40;;;;;;;10.52;1.85;;;19.50;99.90;;;;;;5075627;22;20072;-75
2020/12/31 10:58:07;;;;;;;8.38;3.22;;;19.50;99.90;;;;;;5070272;28;20548;-75
2020/12/31 11:00:34;;;;;;;6.70;2.60;;;19.40;99.90;;;;;;5071935;28;20107;-75
2020/12/31 11:03:01;;;;;;;10.10;2.72;;;19.40;99.90;;;;;;5067323;28;20127;-74
2020/12/31 11:05:29;;;;;;;5.50;1.08;;;19.40;99.90;;;;;;5068273;28;20193;-76
2020/12/31 11:07:56;;;;;;;11.45;3.10;;;19.50;99.90;;;;;;5069350;28;20031;-75
2020/12/31 11:10:23;;;;;;;6.25;1.40;;;19.40;99.90;;;;;;5069995;28;20275;-75
2020/12/31 11:12:50;;;;;;;6.63;1.42;;;19.40;99.90;;;;;;5069527;28;20028;-79
2020/12/31 11:15:18;;;;;;;7.95;1.77;;;19.40;99.90;;;;;;5071771;28;20027;-75
2020/12/31 11:17:45;;;;;;;7.07;1.85;;;19.40;99.90;;;;;;5069795;28;20032;-75
2020/12/31 11:20:12;;;;;;;7.75;2.20;;;19.40;99.90;;;;;;5067484;28;20576;-75
2020/12/31 11:22:40;;;;;;;7.50;1.95;;;19.40;99.90;;;;;;5068043;28;20021;-76
2020/12/31 11:25:07;;;;;;;8.10;1.90;;;19.30;99.90;;;;;;5071242;28;20036;-75
2020/12/31 11:27:34;;;;;;;9.70;2.38;;;19.30;99.90;;;;;;5085446;22;20027;-75
2020/12/31 11:30:01;;;;;;;7.47;1.77;;;19.30;99.90;;;;;;5071201;28;20039;-76
2020/12/31 11:32:29;;;;;;;8.55;1.48;;;19.30;99.90;;;;;;5046971;28;20020;-74
2020/12/31 11:34:56;;;;;;;7.05;2.20;;;19.30;99.90;;;;;;5071301;28;20028;-75
2020/12/31 11:37:23;;;;;;;10.90;2.15;;;19.30;99.90;;;;;;5068968;28;20024;-75
2020/12/31 11:39:50;;;;;;;12.73;2.55;;;19.30;99.90;;;;;;5071089;28;20066;-75
2020/12/31 11:42:18;;;;;;;5.80;1.00;;;19.20;99.90;;;;;;5050789;28;20021;-76
2020/12/31 11:44:47;;;;;;;4.53;1.10;;;19.20;99.90;;;;;;5071232;28;20055;-75
2020/12/31 11:47:14;;;;;;;5.95;1.92;;;19.20;99.90;;;;;;5069264;28;20033;-75
2020/12/31 11:49:41;;;;;;;8.82;1.50;;;19.20;99.90;;;;;;5071205;28;20099;-76
2020/12/31 11:52:08;;;;;;;7.35;2.40;;;19.20;99.90;;;;;;5045758;28;20386;-76
2020/12/31 11:54:36;;;;;;;10.18;2.75;;;19.10;99.90;;;;;;5051356;28;20025;-76
2020/12/31 11:57:04;;;;;;;9.68;1.80;;;19.10;99.90;;;;;;5060399;28;20089;-75
2020/12/31 11:59:32;;;;;;;9.32;1.50;;;19.10;99.90;;;;;;5074825;28;20031;-76
2020/12/31 12:01:59;;;;;;;8.05;1.10;;;19.10;99.90;;;;;;5072970;28;20115;-76
2020/12/31 12:04:26;;;;;;;5.35;0.98;;;19.00;99.90;;;;;;5068029;28;20047;-76
2020/12/31 12:06:54;;;;;;;8.65;1.23;;;19.00;99.90;;;;;;5072426;28;20032;-76
2020/12/31 12:09:25;;;;;;;7.15;0.90;;;18.90;99.90;;;;;;5074446;28;20159;-76
2020/12/31 12:11:52;;;;;;;10.18;1.10;;;18.90;99.90;;;;;;5073077;28;20021;-76
2020/12/31 12:14:19;;;;;;;6.70;1.10;;;18.90;99.90;;;;;;5054202;28;20381;-76
2020/12/31 12:16:52;;;;;;;9.93;1.20;;;18.90;99.90;;;;;;5072837;28;20047;-76
2020/12/31 12:19:19;;;;;;;9.45;1.13;;;18.90;99.90;;;;;;5073126;28;20536;-76
2020/12/31 12:21:47;;;;;;;4.03;1.25;;;18.90;99.90;;;;;;5071294;28;20499;-76
2020/12/31 12:24:14;;;;;;;7.45;0.90;;;18.80;99.90;;;;;;5074973;28;20024;-76
2020/12/31 12:26:41;;;;;;;9.15;1.02;;;18.70;99.90;;;;;;5070447;28;20033;-76
2020/12/31 12:29:09;;;;;;;9.52;1.20;;;18.70;99.90;;;;;;5073285;22;20417;-75
2020/12/31 12:31:38;;;;;;;7.88;1.45;;;18.60;99.90;;;;;;5070144;22;20087;-76
2020/12/31 12:34:06;;;;;;;7.40;0.98;;;18.60;99.90;;;;;;5071759;28;20036;-76
2020/12/31 12:36:34;;;;;;;3.92;1.40;;;18.60;99.90;;;;;;5076985;22;20044;-75
2020/12/31 12:39:03;;;;;;;5.63;2.03;;;18.50;99.90;;;;;;5061541;28;20398;-76
2020/12/31 12:41:30;;;;;;;6.90;2.47;;;18.50;99.90;;;;;;5051978;28;20064;-76
2020/12/31 12:43:57;;;;;;;10.05;3.95;;;18.50;99.90;;;;;;5052995;28;20029;-76
2020/12/31 12:46:25;;;;;;;10.00;2.05;;;18.60;99.90;;;;;;5059857;23;20055;-76
2020/12/31 12:48:52;;;;;;;9.80;2.40;;;18.60;99.90;;;;;;5013321;28;20092;-75
2020/12/31 12:51:19;;;;;;;4.97;0.80;;;18.70;99.90;;;;;;5014493;28;20501;-77
2020/12/31 12:53:46;;;;;;;13.05;1.73;;;18.70;99.90;;;;;;5033680;28;20057;-76